Airfield :
LOGIN :

Register | Disclaimer

   EN    FR    IT 

 










Legend :    VFR   Marginal VFR   IFR   Intensive IFR   Very Intensive IFR
Visi :
Ceiling :
>= 8 km
>= 3000ft
5 to 8 km
1000 to 3000 ft
1500m to 5 km
500 to 1000 ft
800 to 1500m
200 to 500 ft
< 800m
< 200 ft
Symbols :   Thunderstorms  Fog  Heavy snow  Heavy precipitations  Wind > 20 kt
SIGMETs :     Misc.  Thunderstorms  Icing  Turbulence  Mountain Waves  Volcanic Ashes






- Airport Elevation : 1302 ft
- IATA code : GNB


LFLS - Grenoble / St. Geoirs

CURRENT METAR :
  • 200430Z AUTO 07007KT CAVOK M01/M01 Q1025 TEMPO 4000 BR

EXPIRED METARs :
  • 200400Z AUTO 08006KT CAVOK M02/M03 Q1025 TEMPO 4000 BR
  • 200330Z AUTO 08005KT CAVOK M02/M03 Q1025 TEMPO 4000 BR
  • 200300Z AUTO 06004KT CAVOK M01/M01 Q1026 TEMPO 4000 BR
  • 200230Z AUTO 09003KT CAVOK M01/M02 Q1026 TEMPO 4000 BR
  • 200200Z AUTO VRB03KT CAVOK M00/M01 Q1026

TAF TAF LFLS
Valid from the 20 at 03:00 until the 21 at 03:00 UTC


200200Z 2003/2103 09005KT CAVOK
PROB40
TEMPO 2003/2008 4000 BR
TEMPO 2100/2103 -RA OVC030
ATIS : +33 4 76 65 55 89



MET'MAP, your aeronautical weather chart ! - Copyright ORBIFLY December 2007 - Disclaimer

ORBIFLY MET'MAP TEAM :

Programming & Development : Alexandra Zaïnal
Concept & original design : Baudouin d'Aumeries
Assistance for programming : Marc-Olivier Méhu
Technical & hardware support : Manuel Goepfert

Contact : metmap@orbifly.com




SOURCES & CREDITS :

   NOAA